Global Enterprise — 3FCJ6 — position and weather

sailwx.info

Track history (hours):
 
Tides and Currents Weather Stations Pressure Air Temp Water Temp Dewpoint Dewpoint Depression Visibility Wind Speed Wind Dir Waves Ship Positions

Global Enterprise

Last reported at 2018-Mar-29 22:22 UTC. Time now 2018-Apr-23 21:11 UTC.
Position N 13°01' W 018°21'.
Warning: this ship's position is 24 days out of date.

Length 290 m; draft 11.1 m.

Type: Cargo ship. MMSI: 356308000.

Date/timePositionNaut miles runAvg speedWind from/ knotsBaromVisibWave heightAir tempDewpointWater temp
2018-Mar-29 22:22N 13°01' W 018°21'411.4
2018-Mar-29 22:00N 12°57' W 018°22'7011.9
2018-Mar-29 16:07N 11°47' W 018°27'212.0
2018-Mar-29 15:59N 11°45' W 018°27'5811.5
2018-Mar-29 11:00N 10°49' W 018°14'612.8
2018-Mar-29 10:30N 10°44' W 018°10'612.8
2018-Mar-29 10:00N 10°39' W 018°06'612.8
2018-Mar-29 09:30N 10°34' W 018°02'612.7
2018-Mar-29 09:00N 10°29' W 017°58'812.7
2018-Mar-29 08:23N 10°23' W 017°54'512.7
2018-Mar-29 08:00N 10°19' W 017°51'1212.8
2018-Mar-29 07:06N 10°10' W 017°44'512.9
2018-Mar-29 06:42N 10°06' W 017°40'1712.6
2018-Mar-29 05:22N 09°52' W 017°30'1012.4
2018-Mar-29 04:35N 09°44' W 017°24'212.1
2018-Mar-29 04:24N 09°43' W 017°23'612.3
2018-Mar-29 03:54N 09°38' W 017°19'912.2
2018-Mar-29 03:11N 09°31' W 017°14'312.2
2018-Mar-29 02:57N 09°29' W 017°12'812.3
2018-Mar-29 02:18N 09°22' W 017°07'412.2
2018-Mar-29 02:00N 09°19' W 017°05'611.8
2018-Mar-29 01:30N 09°15' W 017°01'611.9
2018-Mar-29 01:00N 09°10' W 016°58'612.2
2018-Mar-29 00:30N 09°05' W 016°54'611.9
2018-Mar-28 23:59N 09°00' W 016°50'612.0
2018-Mar-28 23:30N 08°56' W 016°47'612.3
2018-Mar-28 23:00N 08°51' W 016°43'612.4
2018-Mar-28 22:30N 08°46' W 016°39'612.4
2018-Mar-28 22:00N 08°41' W 016°35'612.4
2018-Mar-28 21:30N 08°36' W 016°32'1112.4
2018-Mar-28 20:39N 08°27' W 016°25'212.3
2018-Mar-28 20:30N 08°26' W 016°24'612.3
2018-Mar-28 20:00N 08°21' W 016°20'612.0
2018-Mar-28 19:30N 08°16' W 016°17'612.0
2018-Mar-28 19:01N 08°12' W 016°13'712.2
2018-Mar-28 18:27N 08°06' W 016°09'512.2
2018-Mar-28 18:00N 08°02' W 016°05'612.2
2018-Mar-28 17:30N 07°57' W 016°02'  
Track history (hours):
 
Tides and Currents Weather Stations Pressure Air Temp Water Temp Dewpoint Dewpoint Depression Visibility Wind Speed Wind Dir Waves Ship Positions

Global Enterprise

Last reported at 2018-Mar-29 22:22 UTC. Time now 2018-Apr-23 21:11 UTC.
Position N 13°01' W 018°21'.
Warning: this ship's position is 24 days out of date.

Length 290 m; draft 11.1 m.

Type: Cargo ship. MMSI: 356308000.

Date/timePositionNaut miles runAvg speedWind from/ knotsBaromVisibWave heightAir tempDewpointWater temp
2018-Mar-29 22:22N 13°01' W 018°21'411.4
2018-Mar-29 22:00N 12°57' W 018°22'7011.9
2018-Mar-29 16:07N 11°47' W 018°27'212.0
2018-Mar-29 15:59N 11°45' W 018°27'5811.5
2018-Mar-29 11:00N 10°49' W 018°14'612.8
2018-Mar-29 10:30N 10°44' W 018°10'612.8
2018-Mar-29 10:00N 10°39' W 018°06'612.8
2018-Mar-29 09:30N 10°34' W 018°02'612.7
2018-Mar-29 09:00N 10°29' W 017°58'812.7
2018-Mar-29 08:23N 10°23' W 017°54'512.7
2018-Mar-29 08:00N 10°19' W 017°51'1212.8
2018-Mar-29 07:06N 10°10' W 017°44'512.9
2018-Mar-29 06:42N 10°06' W 017°40'1712.6
2018-Mar-29 05:22N 09°52' W 017°30'1012.4
2018-Mar-29 04:35N 09°44' W 017°24'212.1
2018-Mar-29 04:24N 09°43' W 017°23'612.3
2018-Mar-29 03:54N 09°38' W 017°19'912.2
2018-Mar-29 03:11N 09°31' W 017°14'312.2
2018-Mar-29 02:57N 09°29' W 017°12'812.3
2018-Mar-29 02:18N 09°22' W 017°07'412.2
2018-Mar-29 02:00N 09°19' W 017°05'611.8
2018-Mar-29 01:30N 09°15' W 017°01'611.9
2018-Mar-29 01:00N 09°10' W 016°58'612.2
2018-Mar-29 00:30N 09°05' W 016°54'611.9
2018-Mar-28 23:59N 09°00' W 016°50'612.0
2018-Mar-28 23:30N 08°56' W 016°47'612.3
2018-Mar-28 23:00N 08°51' W 016°43'612.4
2018-Mar-28 22:30N 08°46' W 016°39'612.4
2018-Mar-28 22:00N 08°41' W 016°35'612.4
2018-Mar-28 21:30N 08°36' W 016°32'1112.4
2018-Mar-28 20:39N 08°27' W 016°25'212.3
2018-Mar-28 20:30N 08°26' W 016°24'612.3
2018-Mar-28 20:00N 08°21' W 016°20'612.0
2018-Mar-28 19:30N 08°16' W 016°17'612.0
2018-Mar-28 19:01N 08°12' W 016°13'712.2
2018-Mar-28 18:27N 08°06' W 016°09'512.2
2018-Mar-28 18:00N 08°02' W 016°05'612.2
2018-Mar-28 17:30N 07°57' W 016°02'  

Dump ship's entire track history